sensor_id;sensor_type;location;lat;lon;timestamp;P1;durP1;ratioP1;P2;durP2;ratioP2
64235;SDS011;50564;47.402;9.740;2023-09-12T00:01:15;7.30;;;6.30;;
64235;SDS011;50564;47.402;9.740;2023-09-12T00:06:16;7.78;;;6.05;;
64235;SDS011;50564;47.402;9.740;2023-09-12T00:11:18;8.30;;;6.38;;
64235;SDS011;50564;47.402;9.740;2023-09-12T00:16:18;7.38;;;6.05;;
64235;SDS011;50564;47.402;9.740;2023-09-12T00:21:19;8.30;;;6.50;;
64235;SDS011;50564;47.402;9.740;2023-09-12T00:26:21;8.88;;;6.65;;
64235;SDS011;50564;47.402;9.740;2023-09-12T00:31:23;8.25;;;6.50;;
64235;SDS011;50564;47.402;9.740;2023-09-12T00:36:23;9.10;;;6.38;;
64235;SDS011;50564;47.402;9.740;2023-09-12T00:41:24;9.35;;;7.10;;
64235;SDS011;50564;47.402;9.740;2023-09-12T00:46:24;11.63;;;7.13;;
64235;SDS011;50564;47.402;9.740;2023-09-12T00:51:28;9.18;;;7.32;;
64235;SDS011;50564;47.402;9.740;2023-09-12T00:56:30;8.45;;;6.43;;
64235;SDS011;50564;47.402;9.740;2023-09-12T01:01:31;9.35;;;7.25;;
64235;SDS011;50564;47.402;9.740;2023-09-12T01:06:32;8.05;;;7.00;;
64235;SDS011;50564;47.402;9.740;2023-09-12T01:11:34;8.85;;;6.82;;
64235;SDS011;50564;47.402;9.740;2023-09-12T01:16:34;9.90;;;7.20;;
64235;SDS011;50564;47.402;9.740;2023-09-12T01:27:12;9.25;;;6.90;;
64235;SDS011;50564;47.402;9.740;2023-09-12T01:32:16;9.25;;;6.70;;
64235;SDS011;50564;47.402;9.740;2023-09-12T01:37:18;10.48;;;7.25;;
64235;SDS011;50564;47.402;9.740;2023-09-12T01:42:20;10.40;;;7.47;;
64235;SDS011;50564;47.402;9.740;2023-09-12T01:47:22;10.25;;;6.90;;
64235;SDS011;50564;47.402;9.740;2023-09-12T01:52:27;10.65;;;7.13;;
64235;SDS011;50564;47.402;9.740;2023-09-12T01:57:28;9.95;;;6.90;;
64235;SDS011;50564;47.402;9.740;2023-09-12T02:02:29;8.88;;;7.32;;
64235;SDS011;50564;47.402;9.740;2023-09-12T02:07:31;10.07;;;7.53;;
64235;SDS011;50564;47.402;9.740;2023-09-12T02:12:33;10.57;;;7.15;;
64235;SDS011;50564;47.402;9.740;2023-09-12T02:17:34;10.05;;;7.53;;
64235;SDS011;50564;47.402;9.740;2023-09-12T02:22:34;8.15;;;6.72;;
64235;SDS011;50564;47.402;9.740;2023-09-12T02:27:35;8.43;;;6.97;;
64235;SDS011;50564;47.402;9.740;2023-09-12T02:32:35;10.18;;;7.95;;
64235;SDS011;50564;47.402;9.740;2023-09-12T02:37:36;10.68;;;7.35;;
64235;SDS011;50564;47.402;9.740;2023-09-12T02:42:37;10.38;;;7.35;;
64235;SDS011;50564;47.402;9.740;2023-09-12T02:47:39;9.23;;;6.57;;
64235;SDS011;50564;47.402;9.740;2023-09-12T02:52:40;11.57;;;7.45;;
64235;SDS011;50564;47.402;9.740;2023-09-12T02:57:41;7.88;;;6.60;;
64235;SDS011;50564;47.402;9.740;2023-09-12T03:02:42;9.23;;;7.00;;
64235;SDS011;50564;47.402;9.740;2023-09-12T03:07:43;8.82;;;6.95;;
64235;SDS011;50564;47.402;9.740;2023-09-12T03:12:43;9.10;;;7.15;;
64235;SDS011;50564;47.402;9.740;2023-09-12T03:17:44;9.82;;;7.68;;
64235;SDS011;50564;47.402;9.740;2023-09-12T03:22:45;10.07;;;7.30;;
64235;SDS011;50564;47.402;9.740;2023-09-12T03:27:46;10.80;;;7.40;;
64235;SDS011;50564;47.402;9.740;2023-09-12T03:32:47;10.43;;;7.03;;
64235;SDS011;50564;47.402;9.740;2023-09-12T03:37:48;10.18;;;7.55;;
64235;SDS011;50564;47.402;9.740;2023-09-12T03:42:49;11.40;;;8.70;;
64235;SDS011;50564;47.402;9.740;2023-09-12T03:47:51;9.68;;;8.20;;
64235;SDS011;50564;47.402;9.740;2023-09-12T03:52:52;9.63;;;7.63;;
64235;SDS011;50564;47.402;9.740;2023-09-12T03:57:52;10.98;;;7.90;;
64235;SDS011;50564;47.402;9.740;2023-09-12T04:02:53;12.48;;;7.78;;
64235;SDS011;50564;47.402;9.740;2023-09-12T04:07:54;9.75;;;7.80;;
64235;SDS011;50564;47.402;9.740;2023-09-12T04:12:54;9.35;;;8.20;;
64235;SDS011;50564;47.402;9.740;2023-09-12T04:17:55;9.60;;;7.78;;
64235;SDS011;50564;47.402;9.740;2023-09-12T04:22:56;10.63;;;8.23;;
64235;SDS011;50564;47.402;9.740;2023-09-12T04:27:57;12.15;;;8.52;;
64235;SDS011;50564;47.402;9.740;2023-09-12T04:32:57;12.38;;;9.57;;
64235;SDS011;50564;47.402;9.740;2023-09-12T04:37:58;14.88;;;10.85;;
64235;SDS011;50564;47.402;9.740;2023-09-12T04:42:59;12.35;;;8.95;;
64235;SDS011;50564;47.402;9.740;2023-09-12T04:47:59;10.05;;;8.43;;
64235;SDS011;50564;47.402;9.740;2023-09-12T04:53:01;10.55;;;8.25;;
64235;SDS011;50564;47.402;9.740;2023-09-12T04:58:04;13.35;;;9.55;;
64235;SDS011;50564;47.402;9.740;2023-09-12T05:03:05;11.27;;;8.15;;
64235;SDS011;50564;47.402;9.740;2023-09-12T05:08:06;10.93;;;8.45;;
64235;SDS011;50564;47.402;9.740;2023-09-12T05:13:06;10.40;;;8.10;;
64235;SDS011;50564;47.402;9.740;2023-09-12T05:18:07;10.18;;;8.43;;
64235;SDS011;50564;47.402;9.740;2023-09-12T05:23:09;10.45;;;8.93;;
64235;SDS011;50564;47.402;9.740;2023-09-12T05:28:10;12.18;;;8.57;;
64235;SDS011;50564;47.402;9.740;2023-09-12T05:33:10;10.90;;;8.82;;
64235;SDS011;50564;47.402;9.740;2023-09-12T05:38:11;13.50;;;8.85;;
64235;SDS011;50564;47.402;9.740;2023-09-12T05:43:12;13.02;;;8.48;;
64235;SDS011;50564;47.402;9.740;2023-09-12T05:48:13;12.80;;;8.75;;
64235;SDS011;50564;47.402;9.740;2023-09-12T05:53:13;12.15;;;7.65;;
64235;SDS011;50564;47.402;9.740;2023-09-12T05:58:15;10.95;;;8.38;;
64235;SDS011;50564;47.402;9.740;2023-09-12T06:03:18;10.25;;;8.65;;
64235;SDS011;50564;47.402;9.740;2023-09-12T06:08:18;9.63;;;8.10;;
64235;SDS011;50564;47.402;9.740;2023-09-12T06:13:19;9.93;;;8.20;;
64235;SDS011;50564;47.402;9.740;2023-09-12T06:18:20;11.27;;;8.07;;
64235;SDS011;50564;47.402;9.740;2023-09-12T06:23:21;12.68;;;8.45;;
64235;SDS011;50564;47.402;9.740;2023-09-12T06:28:29;9.65;;;8.00;;
64235;SDS011;50564;47.402;9.740;2023-09-12T06:33:30;10.35;;;8.30;;
64235;SDS011;50564;47.402;9.740;2023-09-12T06:38:32;12.05;;;8.70;;
64235;SDS011;50564;47.402;9.740;2023-09-12T06:43:32;11.10;;;7.90;;
64235;SDS011;50564;47.402;9.740;2023-09-12T06:48:34;10.40;;;7.72;;
64235;SDS011;50564;47.402;9.740;2023-09-12T06:53:43;9.15;;;7.20;;
64235;SDS011;50564;47.402;9.740;2023-09-12T06:58:54;9.55;;;7.55;;
64235;SDS011;50564;47.402;9.740;2023-09-12T07:03:56;8.57;;;6.78;;
64235;SDS011;50564;47.402;9.740;2023-09-12T07:08:58;12.25;;;7.30;;
64235;SDS011;50564;47.402;9.740;2023-09-12T07:13:58;9.38;;;7.95;;
64235;SDS011;50564;47.402;9.740;2023-09-12T07:18:59;11.05;;;8.05;;
64235;SDS011;50564;47.402;9.740;2023-09-12T07:24:00;12.50;;;8.32;;
64235;SDS011;50564;47.402;9.740;2023-09-12T07:29:01;12.23;;;8.88;;
64235;SDS011;50564;47.402;9.740;2023-09-12T07:34:02;10.45;;;7.97;;
64235;SDS011;50564;47.402;9.740;2023-09-12T07:39:03;9.50;;;8.10;;
64235;SDS011;50564;47.402;9.740;2023-09-12T07:44:04;11.55;;;7.70;;
64235;SDS011;50564;47.402;9.740;2023-09-12T07:49:05;12.68;;;7.93;;
64235;SDS011;50564;47.402;9.740;2023-09-12T07:54:05;14.10;;;8.20;;
64235;SDS011;50564;47.402;9.740;2023-09-12T07:59:06;13.02;;;8.25;;
64235;SDS011;50564;47.402;9.740;2023-09-12T08:04:08;12.20;;;8.25;;
64235;SDS011;50564;47.402;9.740;2023-09-12T08:09:09;12.25;;;9.02;;
64235;SDS011;50564;47.402;9.740;2023-09-12T08:14:35;12.20;;;8.23;;
64235;SDS011;50564;47.402;9.740;2023-09-12T08:19:44;11.07;;;8.48;;
64235;SDS011;50564;47.402;9.740;2023-09-12T08:24:45;13.02;;;8.57;;
64235;SDS011;50564;47.402;9.740;2023-09-12T08:29:46;13.88;;;9.77;;
64235;SDS011;50564;47.402;9.740;2023-09-12T08:34:49;12.25;;;8.57;;
64235;SDS011;50564;47.402;9.740;2023-09-12T08:40:00;14.73;;;9.63;;
64235;SDS011;50564;47.402;9.740;2023-09-12T08:45:01;17.75;;;9.27;;
64235;SDS011;50564;47.402;9.740;2023-09-12T08:50:04;13.07;;;8.73;;
64235;SDS011;50564;47.402;9.740;2023-09-12T08:55:05;16.95;;;9.50;;
64235;SDS011;50564;47.402;9.740;2023-09-12T09:00:15;13.48;;;8.57;;
64235;SDS011;50564;47.402;9.740;2023-09-12T09:05:17;13.00;;;8.02;;
64235;SDS011;50564;47.402;9.740;2023-09-12T09:10:22;13.48;;;8.70;;
64235;SDS011;50564;47.402;9.740;2023-09-12T09:15:23;12.55;;;8.43;;
64235;SDS011;50564;47.402;9.740;2023-09-12T09:20:27;10.38;;;7.95;;
64235;SDS011;50564;47.402;9.740;2023-09-12T09:25:41;10.82;;;8.48;;
64235;SDS011;50564;47.402;9.740;2023-09-12T09:30:45;11.23;;;7.95;;
64235;SDS011;50564;47.402;9.740;2023-09-12T09:35:54;13.02;;;7.93;;
64235;SDS011;50564;47.402;9.740;2023-09-12T09:46:22;10.00;;;7.90;;
64235;SDS011;50564;47.402;9.740;2023-09-12T09:51:22;12.23;;;8.35;;
64235;SDS011;50564;47.402;9.740;2023-09-12T09:56:23;10.95;;;7.90;;
64235;SDS011;50564;47.402;9.740;2023-09-12T10:01:28;11.88;;;8.10;;
64235;SDS011;50564;47.402;9.740;2023-09-12T10:06:29;13.27;;;8.98;;
64235;SDS011;50564;47.402;9.740;2023-09-12T10:11:33;10.20;;;8.68;;
64235;SDS011;50564;47.402;9.740;2023-09-12T10:16:34;10.23;;;8.77;;
64235;SDS011;50564;47.402;9.740;2023-09-12T10:26:52;11.32;;;8.30;;
64235;SDS011;50564;47.402;9.740;2023-09-12T10:31:54;9.60;;;7.88;;
64235;SDS011;50564;47.402;9.740;2023-09-12T10:36:55;11.10;;;7.78;;
64235;SDS011;50564;47.402;9.740;2023-09-12T10:41:59;11.13;;;8.20;;
64235;SDS011;50564;47.402;9.740;2023-09-12T10:46:59;11.73;;;8.65;;
64235;SDS011;50564;47.402;9.740;2023-09-12T10:52:00;12.60;;;8.18;;
64235;SDS011;50564;47.402;9.740;2023-09-12T10:57:02;9.80;;;7.78;;
64235;SDS011;50564;47.402;9.740;2023-09-12T11:12:36;10.18;;;7.82;;
64235;SDS011;50564;47.402;9.740;2023-09-12T11:17:38;9.30;;;7.35;;
64235;SDS011;50564;47.402;9.740;2023-09-12T11:22:40;9.70;;;6.65;;
64235;SDS011;50564;47.402;9.740;2023-09-12T11:33:06;11.13;;;7.57;;
64235;SDS011;50564;47.402;9.740;2023-09-12T11:38:10;12.13;;;8.23;;
64235;SDS011;50564;47.402;9.740;2023-09-12T11:43:30;12.35;;;7.63;;
64235;SDS011;50564;47.402;9.740;2023-09-12T11:48:38;11.57;;;8.50;;
64235;SDS011;50564;47.402;9.740;2023-09-12T11:53:39;11.32;;;8.50;;
64235;SDS011;50564;47.402;9.740;2023-09-12T11:58:41;10.52;;;8.35;;
64235;SDS011;50564;47.402;9.740;2023-09-12T12:03:41;11.50;;;8.50;;
64235;SDS011;50564;47.402;9.740;2023-09-12T12:08:43;10.73;;;8.80;;
64235;SDS011;50564;47.402;9.740;2023-09-12T12:13:43;11.65;;;8.68;;
64235;SDS011;50564;47.402;9.740;2023-09-12T12:18:44;13.98;;;8.43;;
64235;SDS011;50564;47.402;9.740;2023-09-12T12:23:45;10.60;;;8.93;;
64235;SDS011;50564;47.402;9.740;2023-09-12T12:28:46;12.07;;;8.88;;
64235;SDS011;50564;47.402;9.740;2023-09-12T12:33:53;12.23;;;9.45;;
64235;SDS011;50564;47.402;9.740;2023-09-12T12:38:54;10.93;;;9.10;;
64235;SDS011;50564;47.402;9.740;2023-09-12T12:43:58;14.48;;;9.07;;
64235;SDS011;50564;47.402;9.740;2023-09-12T12:49:02;10.20;;;7.75;;
64235;SDS011;50564;47.402;9.740;2023-09-12T12:54:05;12.38;;;7.93;;
64235;SDS011;50564;47.402;9.740;2023-09-12T12:59:07;9.80;;;8.48;;
64235;SDS011;50564;47.402;9.740;2023-09-12T13:04:08;9.90;;;7.90;;
64235;SDS011;50564;47.402;9.740;2023-09-12T13:09:09;13.82;;;7.97;;
64235;SDS011;50564;47.402;9.740;2023-09-12T13:14:11;12.35;;;7.15;;
64235;SDS011;50564;47.402;9.740;2023-09-12T13:19:12;9.73;;;6.90;;
64235;SDS011;50564;47.402;9.740;2023-09-12T13:24:13;9.68;;;7.65;;
64235;SDS011;50564;47.402;9.740;2023-09-12T13:29:19;10.43;;;8.65;;
64235;SDS011;50564;47.402;9.740;2023-09-12T13:34:19;11.97;;;8.47;;
64235;SDS011;50564;47.402;9.740;2023-09-12T13:39:20;12.50;;;8.32;;
64235;SDS011;50564;47.402;9.740;2023-09-12T13:44:21;14.27;;;8.93;;
64235;SDS011;50564;47.402;9.740;2023-09-12T13:49:21;10.48;;;8.55;;
64235;SDS011;50564;47.402;9.740;2023-09-12T13:54:22;8.98;;;7.78;;
64235;SDS011;50564;47.402;9.740;2023-09-12T13:59:23;12.13;;;8.77;;
64235;SDS011;50564;47.402;9.740;2023-09-12T14:04:24;11.75;;;8.75;;
64235;SDS011;50564;47.402;9.740;2023-09-12T14:09:25;10.88;;;8.32;;
64235;SDS011;50564;47.402;9.740;2023-09-12T14:14:26;10.10;;;8.07;;
64235;SDS011;50564;47.402;9.740;2023-09-12T14:19:27;10.85;;;8.02;;
64235;SDS011;50564;47.402;9.740;2023-09-12T14:24:30;10.85;;;8.30;;
64235;SDS011;50564;47.402;9.740;2023-09-12T14:29:32;12.23;;;8.38;;
64235;SDS011;50564;47.402;9.740;2023-09-12T14:34:33;10.90;;;8.13;;
64235;SDS011;50564;47.402;9.740;2023-09-12T14:39:35;12.77;;;8.95;;
64235;SDS011;50564;47.402;9.740;2023-09-12T14:44:37;12.48;;;9.95;;
64235;SDS011;50564;47.402;9.740;2023-09-12T14:49:39;12.45;;;9.52;;
64235;SDS011;50564;47.402;9.740;2023-09-12T14:54:41;11.18;;;9.70;;
64235;SDS011;50564;47.402;9.740;2023-09-12T14:59:43;17.48;;;11.70;;
64235;SDS011;50564;47.402;9.740;2023-09-12T15:04:45;14.07;;;5.70;;
64235;SDS011;50564;47.402;9.740;2023-09-12T15:09:46;11.45;;;5.15;;
64235;SDS011;50564;47.402;9.740;2023-09-12T15:14:49;11.57;;;5.95;;
64235;SDS011;50564;47.402;9.740;2023-09-12T15:19:51;8.25;;;5.22;;
64235;SDS011;50564;47.402;9.740;2023-09-12T15:24:52;10.70;;;5.63;;
64235;SDS011;50564;47.402;9.740;2023-09-12T15:29:53;15.82;;;8.15;;
64235;SDS011;50564;47.402;9.740;2023-09-12T15:34:54;9.77;;;6.70;;
64235;SDS011;50564;47.402;9.740;2023-09-12T15:39:56;13.85;;;8.88;;
64235;SDS011;50564;47.402;9.740;2023-09-12T15:44:58;13.45;;;8.40;;
64235;SDS011;50564;47.402;9.740;2023-09-12T15:49:59;9.70;;;8.30;;
64235;SDS011;50564;47.402;9.740;2023-09-12T15:55:01;9.57;;;6.53;;
64235;SDS011;50564;47.402;9.740;2023-09-12T16:00:07;7.38;;;5.20;;
64235;SDS011;50564;47.402;9.740;2023-09-12T16:05:14;8.00;;;4.88;;
64235;SDS011;50564;47.402;9.740;2023-09-12T16:10:15;6.25;;;4.30;;
64235;SDS011;50564;47.402;9.740;2023-09-12T16:15:17;7.35;;;4.18;;
64235;SDS011;50564;47.402;9.740;2023-09-12T16:20:18;5.97;;;3.80;;
64235;SDS011;50564;47.402;9.740;2023-09-12T16:25:20;4.53;;;3.00;;
64235;SDS011;50564;47.402;9.740;2023-09-12T16:30:21;3.88;;;2.92;;
64235;SDS011;50564;47.402;9.740;2023-09-12T16:35:23;4.78;;;3.20;;
64235;SDS011;50564;47.402;9.740;2023-09-12T16:40:25;5.80;;;3.42;;
64235;SDS011;50564;47.402;9.740;2023-09-12T16:45:27;4.93;;;3.30;;
64235;SDS011;50564;47.402;9.740;2023-09-12T16:50:28;5.18;;;3.28;;
64235;SDS011;50564;47.402;9.740;2023-09-12T16:55:30;9.90;;;4.22;;
64235;SDS011;50564;47.402;9.740;2023-09-12T17:00:32;7.65;;;3.95;;
64235;SDS011;50564;47.402;9.740;2023-09-12T17:05:33;9.85;;;4.13;;
64235;SDS011;50564;47.402;9.740;2023-09-12T17:10:35;7.45;;;3.50;;
64235;SDS011;50564;47.402;9.740;2023-09-12T17:15:37;9.27;;;3.60;;
64235;SDS011;50564;47.402;9.740;2023-09-12T17:20:39;9.45;;;3.88;;
64235;SDS011;50564;47.402;9.740;2023-09-12T17:25:41;8.32;;;3.35;;
64235;SDS011;50564;47.402;9.740;2023-09-12T17:30:42;6.25;;;3.97;;
64235;SDS011;50564;47.402;9.740;2023-09-12T17:35:48;6.50;;;3.55;;
64235;SDS011;50564;47.402;9.740;2023-09-12T17:40:52;5.93;;;3.75;;
64235;SDS011;50564;47.402;9.740;2023-09-12T17:45:55;5.50;;;3.97;;
64235;SDS011;50564;47.402;9.740;2023-09-12T17:50:58;7.32;;;4.65;;
64235;SDS011;50564;47.402;9.740;2023-09-12T17:56:01;6.25;;;4.78;;
64235;SDS011;50564;47.402;9.740;2023-09-12T18:01:03;5.70;;;4.22;;
64235;SDS011;50564;47.402;9.740;2023-09-12T18:06:05;7.78;;;4.72;;
64235;SDS011;50564;47.402;9.740;2023-09-12T18:11:11;6.68;;;4.25;;
64235;SDS011;50564;47.402;9.740;2023-09-12T18:16:13;6.88;;;4.20;;
64235;SDS011;50564;47.402;9.740;2023-09-12T18:21:19;7.43;;;4.70;;
64235;SDS011;50564;47.402;9.740;2023-09-12T18:26:20;8.23;;;5.03;;
64235;SDS011;50564;47.402;9.740;2023-09-12T18:31:27;6.90;;;4.78;;
64235;SDS011;50564;47.402;9.740;2023-09-12T18:36:29;7.50;;;4.35;;
64235;SDS011;50564;47.402;9.740;2023-09-12T18:41:34;7.05;;;4.88;;
64235;SDS011;50564;47.402;9.740;2023-09-12T18:46:36;7.32;;;4.85;;
64235;SDS011;50564;47.402;9.740;2023-09-12T18:51:40;9.57;;;4.25;;
64235;SDS011;50564;47.402;9.740;2023-09-12T18:56:42;6.50;;;4.10;;
64235;SDS011;50564;47.402;9.740;2023-09-12T19:01:46;8.15;;;4.35;;
64235;SDS011;50564;47.402;9.740;2023-09-12T19:06:52;5.82;;;4.05;;
64235;SDS011;50564;47.402;9.740;2023-09-12T19:11:59;5.95;;;3.90;;
64235;SDS011;50564;47.402;9.740;2023-09-12T19:17:05;6.28;;;3.72;;
64235;SDS011;50564;47.402;9.740;2023-09-12T19:22:10;4.43;;;3.20;;
64235;SDS011;50564;47.402;9.740;2023-09-12T19:27:14;6.68;;;3.90;;
64235;SDS011;50564;47.402;9.740;2023-09-12T19:32:16;5.13;;;3.05;;
64235;SDS011;50564;47.402;9.740;2023-09-12T19:37:21;4.47;;;3.30;;
64235;SDS011;50564;47.402;9.740;2023-09-12T19:42:24;5.82;;;3.60;;
64235;SDS011;50564;47.402;9.740;2023-09-12T19:47:28;5.07;;;3.45;;
64235;SDS011;50564;47.402;9.740;2023-09-12T19:52:38;9.27;;;5.10;;
64235;SDS011;50564;47.402;9.740;2023-09-12T19:57:40;9.20;;;4.90;;
64235;SDS011;50564;47.402;9.740;2023-09-12T20:02:46;10.77;;;7.40;;
64235;SDS011;50564;47.402;9.740;2023-09-12T20:07:51;10.02;;;6.45;;
64235;SDS011;50564;47.402;9.740;2023-09-12T20:12:53;10.73;;;6.05;;
64235;SDS011;50564;47.402;9.740;2023-09-12T20:18:09;8.18;;;5.88;;
64235;SDS011;50564;47.402;9.740;2023-09-12T20:23:13;8.90;;;5.55;;
64235;SDS011;50564;47.402;9.740;2023-09-12T20:28:16;10.70;;;5.22;;
64235;SDS011;50564;47.402;9.740;2023-09-12T20:33:18;9.35;;;5.00;;
64235;SDS011;50564;47.402;9.740;2023-09-12T20:38:20;8.40;;;4.68;;
64235;SDS011;50564;47.402;9.740;2023-09-12T20:43:21;6.13;;;3.53;;
64235;SDS011;50564;47.402;9.740;2023-09-12T20:48:23;5.90;;;4.05;;
64235;SDS011;50564;47.402;9.740;2023-09-12T20:53:25;6.82;;;3.70;;
64235;SDS011;50564;47.402;9.740;2023-09-12T20:58:26;6.72;;;4.20;;
64235;SDS011;50564;47.402;9.740;2023-09-12T21:03:28;7.30;;;4.15;;
64235;SDS011;50564;47.402;9.740;2023-09-12T21:08:28;5.10;;;3.75;;
64235;SDS011;50564;47.402;9.740;2023-09-12T21:13:31;5.80;;;3.58;;
64235;SDS011;50564;47.402;9.740;2023-09-12T21:18:32;7.32;;;4.10;;
64235;SDS011;50564;47.402;9.740;2023-09-12T21:23:32;5.43;;;3.40;;
64235;SDS011;50564;47.402;9.740;2023-09-12T21:28:33;5.65;;;3.45;;
64235;SDS011;50564;47.402;9.740;2023-09-12T21:33:34;10.25;;;4.63;;
64235;SDS011;50564;47.402;9.740;2023-09-12T21:38:35;6.47;;;4.22;;
64235;SDS011;50564;47.402;9.740;2023-09-12T21:43:35;6.05;;;4.18;;
64235;SDS011;50564;47.402;9.740;2023-09-12T21:48:36;6.60;;;3.63;;
64235;SDS011;50564;47.402;9.740;2023-09-12T21:53:37;8.02;;;4.15;;
64235;SDS011;50564;47.402;9.740;2023-09-12T21:58:37;5.65;;;3.78;;
64235;SDS011;50564;47.402;9.740;2023-09-12T22:03:38;6.30;;;3.50;;
64235;SDS011;50564;47.402;9.740;2023-09-12T22:08:39;6.50;;;3.72;;
64235;SDS011;50564;47.402;9.740;2023-09-12T22:13:39;5.60;;;4.07;;
64235;SDS011;50564;47.402;9.740;2023-09-12T22:18:40;5.68;;;4.25;;
64235;SDS011;50564;47.402;9.740;2023-09-12T22:23:40;10.05;;;4.53;;
64235;SDS011;50564;47.402;9.740;2023-09-12T22:28:41;7.25;;;4.07;;
64235;SDS011;50564;47.402;9.740;2023-09-12T22:33:42;7.57;;;4.15;;
64235;SDS011;50564;47.402;9.740;2023-09-12T22:38:43;8.73;;;3.92;;
64235;SDS011;50564;47.402;9.740;2023-09-12T22:43:43;8.13;;;3.85;;
64235;SDS011;50564;47.402;9.740;2023-09-12T22:48:44;8.88;;;4.10;;
64235;SDS011;50564;47.402;9.740;2023-09-12T22:53:44;7.43;;;4.47;;
64235;SDS011;50564;47.402;9.740;2023-09-12T22:58:45;8.25;;;3.97;;
64235;SDS011;50564;47.402;9.740;2023-09-12T23:03:46;7.60;;;3.85;;
64235;SDS011;50564;47.402;9.740;2023-09-12T23:08:47;5.00;;;3.72;;
64235;SDS011;50564;47.402;9.740;2023-09-12T23:13:48;7.50;;;3.67;;
64235;SDS011;50564;47.402;9.740;2023-09-12T23:18:48;9.35;;;4.10;;
64235;SDS011;50564;47.402;9.740;2023-09-12T23:23:49;11.70;;;3.88;;
64235;SDS011;50564;47.402;9.740;2023-09-12T23:28:50;7.40;;;3.78;;
64235;SDS011;50564;47.402;9.740;2023-09-12T23:33:51;6.50;;;3.55;;
64235;SDS011;50564;47.402;9.740;2023-09-12T23:38:52;5.13;;;3.47;;
64235;SDS011;50564;47.402;9.740;2023-09-12T23:43:52;6.45;;;3.92;;
64235;SDS011;50564;47.402;9.740;2023-09-12T23:48:53;4.70;;;3.30;;
64235;SDS011;50564;47.402;9.740;2023-09-12T23:53:53;9.23;;;3.63;;
64235;SDS011;50564;47.402;9.740;2023-09-12T23:58:54;5.43;;;3.40;;
